sensor_id;sensor_type;location;lat;lon;timestamp;pressure;altitude;pressure_sealevel;temperature;humidity
9822;BME280;4950;46.042;14.472;2023-04-01T00:01:26;96812.69;;;9.07;94.39
9822;BME280;4950;46.042;14.472;2023-04-01T00:03:52;96809.19;;;9.22;92.95
9822;BME280;4950;46.042;14.472;2023-04-01T00:06:21;96800.38;;;9.16;93.07
9822;BME280;4950;46.042;14.472;2023-04-01T00:08:48;96799.81;;;9.21;93.17
9822;BME280;4950;46.042;14.472;2023-04-01T00:11:16;96792.47;;;9.24;92.85
9822;BME280;4950;46.042;14.472;2023-04-01T00:13:43;96793.66;;;9.22;92.79
9822;BME280;4950;46.042;14.472;2023-04-01T00:16:10;96786.06;;;9.20;92.88
9822;BME280;4950;46.042;14.472;2023-04-01T00:18:37;96783.91;;;9.24;92.78
9822;BME280;4950;46.042;14.472;2023-04-01T00:21:04;96789.69;;;9.33;93.20
9822;BME280;4950;46.042;14.472;2023-04-01T00:23:32;96782.72;;;9.33;92.88
9822;BME280;4950;46.042;14.472;2023-04-01T00:25:59;96786.13;;;9.34;92.24
9822;BME280;4950;46.042;14.472;2023-04-01T00:28:26;96778.16;;;9.35;92.10
9822;BME280;4950;46.042;14.472;2023-04-01T00:30:53;96771.97;;;9.36;92.41
9822;BME280;4950;46.042;14.472;2023-04-01T00:33:20;96767.59;;;9.37;91.75
9822;BME280;4950;46.042;14.472;2023-04-01T00:35:47;96764.22;;;9.36;91.60
9822;BME280;4950;46.042;14.472;2023-04-01T00:38:14;96761.03;;;9.34;91.07
9822;BME280;4950;46.042;14.472;2023-04-01T00:40:45;96764.38;;;9.28;91.18
9822;BME280;4950;46.042;14.472;2023-04-01T00:43:13;96768.56;;;9.29;91.48
9822;BME280;4950;46.042;14.472;2023-04-01T00:45:42;96762.59;;;9.28;90.61
9822;BME280;4950;46.042;14.472;2023-04-01T00:48:11;96751.81;;;9.25;90.44
9822;BME280;4950;46.042;14.472;2023-04-01T00:50:41;96758.63;;;9.33;90.34
9822;BME280;4950;46.042;14.472;2023-04-01T00:53:09;96759.63;;;9.32;90.02
9822;BME280;4950;46.042;14.472;2023-04-01T00:55:41;96747.84;;;9.29;90.39
9822;BME280;4950;46.042;14.472;2023-04-01T00:58:15;96753.03;;;9.29;89.75
9822;BME280;4950;46.042;14.472;2023-04-01T01:00:45;96744.88;;;9.32;89.81
9822;BME280;4950;46.042;14.472;2023-04-01T01:03:13;96743.22;;;9.18;89.48
9822;BME280;4950;46.042;14.472;2023-04-01T01:05:54;96739.03;;;9.17;89.49
9822;BME280;4950;46.042;14.472;2023-04-01T01:08:30;96734.63;;;9.11;89.71
9822;BME280;4950;46.042;14.472;2023-04-01T01:11:05;96720.91;;;9.10;88.63
9822;BME280;4950;46.042;14.472;2023-04-01T01:13:40;96726.47;;;9.07;89.31
9822;BME280;4950;46.042;14.472;2023-04-01T01:16:16;96734.03;;;9.08;88.76
9822;BME280;4950;46.042;14.472;2023-04-01T01:18:51;96734.63;;;9.11;89.00
9822;BME280;4950;46.042;14.472;2023-04-01T01:21:49;96738.63;;;9.06;88.81
9822;BME280;4950;46.042;14.472;2023-04-01T01:24:40;96742.00;;;9.07;88.80
9822;BME280;4950;46.042;14.472;2023-04-01T01:27:10;96737.59;;;9.07;88.73
9822;BME280;4950;46.042;14.472;2023-04-01T01:32:49;96735.41;;;9.04;88.09
9822;BME280;4950;46.042;14.472;2023-04-01T01:35:22;96745.16;;;9.02;88.32
9822;BME280;4950;46.042;14.472;2023-04-01T01:37:53;96752.69;;;8.97;88.97
9822;BME280;4950;46.042;14.472;2023-04-01T01:40:22;96754.50;;;8.97;88.62
9822;BME280;4950;46.042;14.472;2023-04-01T01:42:54;96755.06;;;8.92;88.59
9822;BME280;4950;46.042;14.472;2023-04-01T01:45:23;96761.03;;;8.93;88.63
9822;BME280;4950;46.042;14.472;2023-04-01T01:47:52;96763.41;;;8.94;88.61
9822;BME280;4950;46.042;14.472;2023-04-01T01:50:20;96770.22;;;8.95;88.03
9822;BME280;4950;46.042;14.472;2023-04-01T01:52:47;96774.16;;;8.91;88.01
9822;BME280;4950;46.042;14.472;2023-04-01T01:55:26;96764.44;;;8.93;88.04
9822;BME280;4950;46.042;14.472;2023-04-01T01:57:55;96769.38;;;8.88;88.03
9822;BME280;4950;46.042;14.472;2023-04-01T02:00:24;96768.38;;;8.89;88.48
9822;BME280;4950;46.042;14.472;2023-04-01T02:02:51;96762.59;;;8.87;87.93
9822;BME280;4950;46.042;14.472;2023-04-01T02:05:22;96765.63;;;8.91;88.34
9822;BME280;4950;46.042;14.472;2023-04-01T02:07:56;96773.75;;;8.87;87.76
9822;BME280;4950;46.042;14.472;2023-04-01T02:10:25;96775.13;;;8.83;88.03
9822;BME280;4950;46.042;14.472;2023-04-01T02:12:57;96781.44;;;8.74;88.03
9822;BME280;4950;46.042;14.472;2023-04-01T02:15:27;96778.06;;;8.74;88.13
9822;BME280;4950;46.042;14.472;2023-04-01T02:17:56;96777.38;;;8.65;89.39
9822;BME280;4950;46.042;14.472;2023-04-01T02:20:27;96782.94;;;8.62;89.04
9822;BME280;4950;46.042;14.472;2023-04-01T02:22:56;96785.56;;;8.68;89.46
9822;BME280;4950;46.042;14.472;2023-04-01T02:25:25;96782.19;;;8.68;88.90
9822;BME280;4950;46.042;14.472;2023-04-01T02:27:54;96776.22;;;8.67;89.17
9822;BME280;4950;46.042;14.472;2023-04-01T02:30:22;96783.16;;;8.67;88.98
9822;BME280;4950;46.042;14.472;2023-04-01T02:32:49;96784.75;;;8.61;88.53
9822;BME280;4950;46.042;14.472;2023-04-01T02:35:17;96784.41;;;8.43;89.26
9822;BME280;4950;46.042;14.472;2023-04-01T02:37:46;96789.13;;;8.18;90.54
9822;BME280;4950;46.042;14.472;2023-04-01T02:40:16;96786.50;;;8.11;91.21
9822;BME280;4950;46.042;14.472;2023-04-01T02:42:43;96784.75;;;8.18;91.42
9822;BME280;4950;46.042;14.472;2023-04-01T02:45:11;96783.03;;;8.25;90.83
9822;BME280;4950;46.042;14.472;2023-04-01T02:47:38;96778.72;;;8.33;90.72
9822;BME280;4950;46.042;14.472;2023-04-01T02:50:06;96782.69;;;8.28;90.15
9822;BME280;4950;46.042;14.472;2023-04-01T02:52:33;96782.69;;;8.28;89.37
9822;BME280;4950;46.042;14.472;2023-04-01T02:55:01;96781.25;;;8.26;89.26
9822;BME280;4950;46.042;14.472;2023-04-01T02:57:28;96777.25;;;8.23;89.43
9822;BME280;4950;46.042;14.472;2023-04-01T02:59:55;96780.41;;;8.19;89.52
9822;BME280;4950;46.042;14.472;2023-04-01T03:02:22;96773.44;;;8.19;89.58
9822;BME280;4950;46.042;14.472;2023-04-01T03:04:48;96771.47;;;8.21;89.85
9822;BME280;4950;46.042;14.472;2023-04-01T03:07:15;96770.25;;;8.17;88.98
9822;BME280;4950;46.042;14.472;2023-04-01T03:09:42;96780.16;;;8.14;89.01
9822;BME280;4950;46.042;14.472;2023-04-01T03:12:10;96779.38;;;8.13;89.28
9822;BME280;4950;46.042;14.472;2023-04-01T03:14:36;96770.44;;;8.16;89.41
9822;BME280;4950;46.042;14.472;2023-04-01T03:17:03;96771.03;;;8.18;89.31
9822;BME280;4950;46.042;14.472;2023-04-01T03:19:30;96766.44;;;8.13;89.09
9822;BME280;4950;46.042;14.472;2023-04-01T03:21:57;96766.44;;;8.13;88.68
9822;BME280;4950;46.042;14.472;2023-04-01T03:24:24;96759.47;;;8.14;88.80
9822;BME280;4950;46.042;14.472;2023-04-01T03:26:50;96756.72;;;8.15;88.55
9822;BME280;4950;46.042;14.472;2023-04-01T03:29:18;96754.00;;;8.02;88.75
9822;BME280;4950;46.042;14.472;2023-04-01T03:31:45;96759.34;;;8.00;89.08
9822;BME280;4950;46.042;14.472;2023-04-01T03:34:12;96754.00;;;8.02;88.70
9822;BME280;4950;46.042;14.472;2023-04-01T03:36:38;96764.00;;;8.05;89.17
9822;BME280;4950;46.042;14.472;2023-04-01T03:39:05;96775.31;;;8.04;88.61
9822;BME280;4950;46.042;14.472;2023-04-01T03:41:32;96778.44;;;7.99;88.98
9822;BME280;4950;46.042;14.472;2023-04-01T03:43:59;96764.91;;;7.97;88.94
9822;BME280;4950;46.042;14.472;2023-04-01T03:46:27;96764.53;;;8.00;88.80
9822;BME280;4950;46.042;14.472;2023-04-01T03:48:54;96764.03;;;7.90;88.97
9822;BME280;4950;46.042;14.472;2023-04-01T03:51:20;96769.22;;;7.90;89.41
9822;BME280;4950;46.042;14.472;2023-04-01T03:53:48;96759.44;;;7.85;89.58
9822;BME280;4950;46.042;14.472;2023-04-01T03:56:15;96774.34;;;7.83;89.35
9822;BME280;4950;46.042;14.472;2023-04-01T03:58:42;96763.44;;;7.88;89.09
9822;BME280;4950;46.042;14.472;2023-04-01T04:01:17;96766.59;;;7.83;89.06
9822;BME280;4950;46.042;14.472;2023-04-01T04:03:47;96768.13;;;7.78;89.00
9822;BME280;4950;46.042;14.472;2023-04-01T04:06:16;96772.53;;;7.84;89.23
9822;BME280;4950;46.042;14.472;2023-04-01T04:08:43;96776.53;;;7.86;88.89
9822;BME280;4950;46.042;14.472;2023-04-01T04:11:11;96774.06;;;7.78;88.53
9822;BME280;4950;46.042;14.472;2023-04-01T04:13:37;96786.03;;;7.79;88.87
9822;BME280;4950;46.042;14.472;2023-04-01T04:16:05;96779.69;;;7.82;88.43
9822;BME280;4950;46.042;14.472;2023-04-01T04:18:32;96775.47;;;7.81;88.18
9822;BME280;4950;46.042;14.472;2023-04-01T04:21:00;96777.00;;;7.75;88.07
9822;BME280;4950;46.042;14.472;2023-04-01T04:23:26;96782.38;;;7.74;88.02
9822;BME280;4950;46.042;14.472;2023-04-01T04:25:56;96779.97;;;7.72;88.37
9822;BME280;4950;46.042;14.472;2023-04-01T04:28:24;96781.75;;;7.71;87.81
9822;BME280;4950;46.042;14.472;2023-04-01T04:30:51;96789.06;;;7.68;88.66
9822;BME280;4950;46.042;14.472;2023-04-01T04:33:18;96788.06;;;7.69;87.78
9822;BME280;4950;46.042;14.472;2023-04-01T04:35:45;96783.28;;;7.66;87.94
9822;BME280;4950;46.042;14.472;2023-04-01T04:38:13;96792.81;;;7.65;88.19
9822;BME280;4950;46.042;14.472;2023-04-01T04:40:41;96800.50;;;7.59;88.02
9822;BME280;4950;46.042;14.472;2023-04-01T04:43:10;96803.25;;;7.57;88.03
9822;BME280;4950;46.042;14.472;2023-04-01T04:45:37;96804.69;;;7.60;88.00
9822;BME280;4950;46.042;14.472;2023-04-01T04:48:04;96808.78;;;7.54;87.51
9822;BME280;4950;46.042;14.472;2023-04-01T04:50:31;96821.25;;;7.50;88.17
9822;BME280;4950;46.042;14.472;2023-04-01T04:52:58;96823.66;;;7.52;88.05
9822;BME280;4950;46.042;14.472;2023-04-01T04:55:26;96823.22;;;7.48;88.04
9822;BME280;4950;46.042;14.472;2023-04-01T04:57:52;96821.63;;;7.47;87.84
9822;BME280;4950;46.042;14.472;2023-04-01T05:00:19;96827.50;;;7.41;87.91
9822;BME280;4950;46.042;14.472;2023-04-01T05:02:46;96815.59;;;7.40;87.85
9822;BME280;4950;46.042;14.472;2023-04-01T05:05:12;96816.72;;;7.38;87.69
9822;BME280;4950;46.042;14.472;2023-04-01T05:07:39;96820.41;;;7.14;88.29
9822;BME280;4950;46.042;14.472;2023-04-01T05:10:06;96821.91;;;7.08;89.55
9822;BME280;4950;46.042;14.472;2023-04-01T05:12:34;96832.34;;;7.00;91.16
9822;BME280;4950;46.042;14.472;2023-04-01T05:15:04;96831.72;;;6.98;91.39
9822;BME280;4950;46.042;14.472;2023-04-01T05:17:31;96832.16;;;7.01;91.92
9822;BME280;4950;46.042;14.472;2023-04-01T05:19:58;96830.72;;;6.99;91.65
9822;BME280;4950;46.042;14.472;2023-04-01T05:22:24;96835.44;;;6.95;92.20
9822;BME280;4950;46.042;14.472;2023-04-01T05:24:51;96841.28;;;6.89;92.08
9822;BME280;4950;46.042;14.472;2023-04-01T05:27:18;96843.59;;;6.69;92.96
9822;BME280;4950;46.042;14.472;2023-04-01T05:29:46;96843.50;;;6.62;92.99
9822;BME280;4950;46.042;14.472;2023-04-01T05:32:13;96851.66;;;6.66;93.26
9822;BME280;4950;46.042;14.472;2023-04-01T05:34:40;96847.59;;;6.71;93.47
9822;BME280;4950;46.042;14.472;2023-04-01T05:37:06;96852.56;;;6.73;93.35
9822;BME280;4950;46.042;14.472;2023-04-01T05:39:36;96853.81;;;6.77;93.12
9822;BME280;4950;46.042;14.472;2023-04-01T05:42:02;96852.94;;;6.85;93.05
9822;BME280;4950;46.042;14.472;2023-04-01T05:44:29;96866.59;;;6.94;93.26
9822;BME280;4950;46.042;14.472;2023-04-01T05:46:57;96869.97;;;6.94;92.35
9822;BME280;4950;46.042;14.472;2023-04-01T05:49:24;96877.00;;;7.00;92.39
9822;BME280;4950;46.042;14.472;2023-04-01T05:51:51;96871.50;;;7.03;91.24
9822;BME280;4950;46.042;14.472;2023-04-01T05:54:18;96878.84;;;7.06;91.34
9822;BME280;4950;46.042;14.472;2023-04-01T05:56:45;96871.50;;;7.03;90.77
9822;BME280;4950;46.042;14.472;2023-04-01T05:59:12;96878.50;;;6.95;90.81
9822;BME280;4950;46.042;14.472;2023-04-01T06:01:39;96873.25;;;6.88;90.50
9822;BME280;4950;46.042;14.472;2023-04-01T06:04:11;96868.72;;;6.90;91.00
9822;BME280;4950;46.042;14.472;2023-04-01T06:06:39;96868.63;;;6.98;90.80
9822;BME280;4950;46.042;14.472;2023-04-01T06:09:13;96879.00;;;6.75;91.98
9822;BME280;4950;46.042;14.472;2023-04-01T06:11:48;96886.06;;;6.58;93.33
9822;BME280;4950;46.042;14.472;2023-04-01T06:14:27;96880.91;;;6.58;94.23
9822;BME280;4950;46.042;14.472;2023-04-01T06:17:08;96877.41;;;6.74;94.08
9822;BME280;4950;46.042;14.472;2023-04-01T06:19:49;96889.84;;;6.85;94.27
9822;BME280;4950;46.042;14.472;2023-04-01T06:22:46;96879.94;;;6.97;93.79
9822;BME280;4950;46.042;14.472;2023-04-01T06:25:38;96879.47;;;7.08;93.92
9822;BME280;4950;46.042;14.472;2023-04-01T06:28:38;96879.13;;;7.11;93.24
9822;BME280;4950;46.042;14.472;2023-04-01T06:31:17;96877.63;;;7.17;93.50
9822;BME280;4950;46.042;14.472;2023-04-01T06:33:56;96873.78;;;7.28;93.50
9822;BME280;4950;46.042;14.472;2023-04-01T06:39:33;96881.44;;;7.36;93.57
9822;BME280;4950;46.042;14.472;2023-04-01T06:42:15;96881.16;;;7.46;92.96
9822;BME280;4950;46.042;14.472;2023-04-01T06:44:54;96881.16;;;7.46;92.65
9822;BME280;4950;46.042;14.472;2023-04-01T06:47:35;96883.47;;;7.56;93.22
9822;BME280;4950;46.042;14.472;2023-04-01T06:50:11;96891.16;;;7.64;93.55
9822;BME280;4950;46.042;14.472;2023-04-01T06:52:48;96895.94;;;7.67;93.45
9822;BME280;4950;46.042;14.472;2023-04-01T06:55:27;96898.91;;;7.64;93.59
9822;BME280;4950;46.042;14.472;2023-04-01T06:57:56;96901.28;;;7.65;93.49
9822;BME280;4950;46.042;14.472;2023-04-01T07:00:28;96898.97;;;7.70;93.55
9822;BME280;4950;46.042;14.472;2023-04-01T07:03:04;96904.03;;;7.79;93.70
9822;BME280;4950;46.042;14.472;2023-04-01T07:05:33;96888.00;;;7.83;93.92
9822;BME280;4950;46.042;14.472;2023-04-01T07:08:02;96895.66;;;7.91;93.73
9822;BME280;4950;46.042;14.472;2023-04-01T07:10:35;96897.56;;;8.04;93.00
9822;BME280;4950;46.042;14.472;2023-04-01T07:13:13;96901.75;;;8.05;93.05
9822;BME280;4950;46.042;14.472;2023-04-01T07:15:54;96899.44;;;8.10;92.71
9822;BME280;4950;46.042;14.472;2023-04-01T07:18:25;96892.66;;;8.09;92.51
9822;BME280;4950;46.042;14.472;2023-04-01T07:20:55;96897.03;;;8.09;92.54
9822;BME280;4950;46.042;14.472;2023-04-01T07:23:25;96899.97;;;8.06;92.96
9822;BME280;4950;46.042;14.472;2023-04-01T07:25:55;96904.41;;;8.12;92.35
9822;BME280;4950;46.042;14.472;2023-04-01T07:28:22;96902.22;;;8.30;93.65
9822;BME280;4950;46.042;14.472;2023-04-01T07:30:57;96900.94;;;8.41;92.11
9822;BME280;4950;46.042;14.472;2023-04-01T07:33:33;96897.13;;;8.59;93.24
9822;BME280;4950;46.042;14.472;2023-04-01T07:36:07;96901.78;;;8.63;91.82
9822;BME280;4950;46.042;14.472;2023-04-01T07:38:45;96901.06;;;8.76;91.31
9822;BME280;4950;46.042;14.472;2023-04-01T07:41:23;96907.03;;;8.77;90.37
9822;BME280;4950;46.042;14.472;2023-04-01T07:44:01;96905.31;;;8.84;89.91
9822;BME280;4950;46.042;14.472;2023-04-01T07:46:47;96910.16;;;8.94;89.98
9822;BME280;4950;46.042;14.472;2023-04-01T07:49:20;96909.03;;;9.03;90.03
9822;BME280;4950;46.042;14.472;2023-04-01T07:51:55;96905.72;;;9.16;89.51
9822;BME280;4950;46.042;14.472;2023-04-01T07:54:29;96910.56;;;9.25;90.11
9822;BME280;4950;46.042;14.472;2023-04-01T07:57:05;96902.09;;;9.38;90.28
9822;BME280;4950;46.042;14.472;2023-04-01T07:59:41;96889.41;;;9.57;89.07
9822;BME280;4950;46.042;14.472;2023-04-01T08:02:24;96894.66;;;9.63;87.90
9822;BME280;4950;46.042;14.472;2023-04-01T08:05:06;96895.88;;;9.74;87.03
9822;BME280;4950;46.042;14.472;2023-04-01T08:07:45;96897.91;;;9.79;86.74
9822;BME280;4950;46.042;14.472;2023-04-01T08:10:20;96900.31;;;9.87;87.20
9822;BME280;4950;46.042;14.472;2023-04-01T08:13:00;96908.34;;;9.99;87.34
9822;BME280;4950;46.042;14.472;2023-04-01T08:15:36;96905.16;;;10.03;87.43
9822;BME280;4950;46.042;14.472;2023-04-01T08:18:18;96900.00;;;10.10;86.95
9822;BME280;4950;46.042;14.472;2023-04-01T08:20:53;96898.03;;;10.19;87.78
9822;BME280;4950;46.042;14.472;2023-04-01T08:23:24;96890.28;;;10.25;87.35
9822;BME280;4950;46.042;14.472;2023-04-01T08:25:56;96885.72;;;10.34;85.12
9822;BME280;4950;46.042;14.472;2023-04-01T08:28:29;96891.72;;;10.41;84.90
9822;BME280;4950;46.042;14.472;2023-04-01T08:31:00;96889.13;;;10.48;84.61
9822;BME280;4950;46.042;14.472;2023-04-01T08:33:28;96897.91;;;10.60;85.01
9822;BME280;4950;46.042;14.472;2023-04-01T08:35:59;96902.72;;;10.70;85.70
9822;BME280;4950;46.042;14.472;2023-04-01T08:38:32;96887.56;;;10.80;85.32
9822;BME280;4950;46.042;14.472;2023-04-01T08:41:01;96892.94;;;10.99;82.67
9822;BME280;4950;46.042;14.472;2023-04-01T08:43:50;96897.72;;;11.09;81.93
9822;BME280;4950;46.042;14.472;2023-04-01T08:46:27;96894.34;;;11.08;81.72
9822;BME280;4950;46.042;14.472;2023-04-01T08:49:09;96903.91;;;11.14;82.51
9822;BME280;4950;46.042;14.472;2023-04-01T08:52:01;96896.91;;;11.21;82.70
9822;BME280;4950;46.042;14.472;2023-04-01T08:54:46;96902.69;;;11.30;82.38
9822;BME280;4950;46.042;14.472;2023-04-01T08:57:20;96904.88;;;11.46;82.52
9822;BME280;4950;46.042;14.472;2023-04-01T09:00:07;96906.78;;;11.71;79.15
9822;BME280;4950;46.042;14.472;2023-04-01T09:02:51;96906.97;;;11.76;79.19
9822;BME280;4950;46.042;14.472;2023-04-01T09:05:39;96910.34;;;11.90;77.68
9822;BME280;4950;46.042;14.472;2023-04-01T09:08:28;96908.34;;;11.85;76.84
9822;BME280;4950;46.042;14.472;2023-04-01T09:11:13;96909.56;;;11.90;77.74
9822;BME280;4950;46.042;14.472;2023-04-01T09:13:56;96907.88;;;12.02;78.67
9822;BME280;4950;46.042;14.472;2023-04-01T09:16:48;96904.44;;;12.15;77.15
9822;BME280;4950;46.042;14.472;2023-04-01T09:19:25;96893.78;;;12.23;77.04
9822;BME280;4950;46.042;14.472;2023-04-01T09:22:22;96896.66;;;12.40;76.51
9822;BME280;4950;46.042;14.472;2023-04-01T09:25:14;96900.00;;;12.54;74.89
9822;BME280;4950;46.042;14.472;2023-04-01T09:27:56;96895.16;;;12.57;73.45
9822;BME280;4950;46.042;14.472;2023-04-01T09:30:34;96901.41;;;12.50;73.64
9822;BME280;4950;46.042;14.472;2023-04-01T09:33:36;96899.78;;;12.55;75.19
9822;BME280;4950;46.042;14.472;2023-04-01T09:36:14;96899.47;;;12.70;75.19
9822;BME280;4950;46.042;14.472;2023-04-01T09:38:56;96900.91;;;12.91;73.72
9822;BME280;4950;46.042;14.472;2023-04-01T09:41:29;96893.72;;;13.12;74.08
9822;BME280;4950;46.042;14.472;2023-04-01T09:44:03;96895.38;;;13.31;72.50
9822;BME280;4950;46.042;14.472;2023-04-01T09:46:38;96896.03;;;13.45;69.59
9822;BME280;4950;46.042;14.472;2023-04-01T09:52:25;96905.81;;;13.50;70.42
9822;BME280;4950;46.042;14.472;2023-04-01T09:58:11;96901.03;;;13.65;70.96
9822;BME280;4950;46.042;14.472;2023-04-01T10:00:59;96894.94;;;13.71;69.84
9822;BME280;4950;46.042;14.472;2023-04-01T10:07:08;96895.00;;;13.83;68.98
9822;BME280;4950;46.042;14.472;2023-04-01T10:16:17;96888.34;;;13.87;67.95
9822;BME280;4950;46.042;14.472;2023-04-01T10:19:00;96896.00;;;13.82;68.71
9822;BME280;4950;46.042;14.472;2023-04-01T10:25:01;96894.44;;;13.81;68.80
9822;BME280;4950;46.042;14.472;2023-04-01T10:27:54;96896.47;;;13.79;68.28
9822;BME280;4950;46.042;14.472;2023-04-01T10:30:41;96886.47;;;13.76;67.83
9822;BME280;4950;46.042;14.472;2023-04-01T10:33:37;96887.69;;;13.73;67.20
9822;BME280;4950;46.042;14.472;2023-04-01T10:36:33;96892.25;;;13.78;67.11
9822;BME280;4950;46.042;14.472;2023-04-01T10:39:38;96892.84;;;13.61;68.27
9822;BME280;4950;46.042;14.472;2023-04-01T10:42:41;96887.50;;;13.75;69.11
9822;BME280;4950;46.042;14.472;2023-04-01T10:45:49;96885.53;;;13.89;67.73
9822;BME280;4950;46.042;14.472;2023-04-01T10:48:51;96889.97;;;14.00;67.23
9822;BME280;4950;46.042;14.472;2023-04-01T10:51:50;96891.56;;;14.01;68.64
9822;BME280;4950;46.042;14.472;2023-04-01T10:54:43;96882.72;;;14.02;68.38
9822;BME280;4950;46.042;14.472;2023-04-01T10:57:26;96885.91;;;14.04;69.01
9822;BME280;4950;46.042;14.472;2023-04-01T11:00:27;96881.97;;;14.13;69.69
9822;BME280;4950;46.042;14.472;2023-04-01T11:10:03;96857.50;;;14.80;68.66
9822;BME280;4950;46.042;14.472;2023-04-01T11:19:17;96845.25;;;15.68;65.07
9822;BME280;4950;46.042;14.472;2023-04-01T11:22:05;96837.34;;;15.92;63.64
9822;BME280;4950;46.042;14.472;2023-04-01T11:24:51;96825.03;;;16.21;63.72
9822;BME280;4950;46.042;14.472;2023-04-01T11:27:45;96828.06;;;16.47;63.83
9822;BME280;4950;46.042;14.472;2023-04-01T11:30:25;96827.91;;;16.70;62.14
9822;BME280;4950;46.042;14.472;2023-04-01T11:32:59;96821.38;;;16.73;61.46
9822;BME280;4950;46.042;14.472;2023-04-01T11:35:46;96820.06;;;16.87;60.82
9822;BME280;4950;46.042;14.472;2023-04-01T11:38:48;96816.09;;;17.24;58.54
9822;BME280;4950;46.042;14.472;2023-04-01T11:41:26;96812.88;;;17.39;58.33
9822;BME280;4950;46.042;14.472;2023-04-01T11:44:09;96801.88;;;17.64;57.70
9822;BME280;4950;46.042;14.472;2023-04-01T11:46:46;96801.09;;;17.90;56.32
9822;BME280;4950;46.042;14.472;2023-04-01T11:49:36;96798.16;;;18.14;54.20
9822;BME280;4950;46.042;14.472;2023-04-01T11:52:21;96792.94;;;18.46;54.43
9822;BME280;4950;46.042;14.472;2023-04-01T11:55:02;96793.16;;;18.40;53.24
9822;BME280;4950;46.042;14.472;2023-04-01T11:57:46;96792.34;;;18.39;53.95
9822;BME280;4950;46.042;14.472;2023-04-01T12:03:21;96786.28;;;18.76;51.87
9822;BME280;4950;46.042;14.472;2023-04-01T12:05:58;96784.91;;;19.06;49.95
9822;BME280;4950;46.042;14.472;2023-04-01T12:08:40;96769.97;;;19.17;49.75
9822;BME280;4950;46.042;14.472;2023-04-01T12:11:16;96768.97;;;19.33;47.95
9822;BME280;4950;46.042;14.472;2023-04-01T12:13:49;96764.50;;;19.33;48.38
9822;BME280;4950;46.042;14.472;2023-04-01T12:16:37;96762.19;;;19.47;48.74
9822;BME280;4950;46.042;14.472;2023-04-01T12:19:14;96757.72;;;19.53;49.46
9822;BME280;4950;46.042;14.472;2023-04-01T12:21:52;96749.59;;;19.70;47.13
9822;BME280;4950;46.042;14.472;2023-04-01T12:24:47;96748.84;;;19.90;45.04
9822;BME280;4950;46.042;14.472;2023-04-01T12:27:26;96736.22;;;20.07;45.27
9822;BME280;4950;46.042;14.472;2023-04-01T12:32:51;96734.84;;;20.71;42.30
9822;BME280;4950;46.042;14.472;2023-04-01T12:35:22;96730.88;;;20.79;42.30
9822;BME280;4950;46.042;14.472;2023-04-01T12:37:58;96733.81;;;20.67;42.75
9822;BME280;4950;46.042;14.472;2023-04-01T12:43:46;96735.56;;;21.03;42.29
9822;BME280;4950;46.042;14.472;2023-04-01T12:46:23;96730.16;;;21.28;42.08
9822;BME280;4950;46.042;14.472;2023-04-01T12:49:17;96726.38;;;21.55;41.43
9822;BME280;4950;46.042;14.472;2023-04-01T12:52:00;96722.09;;;21.64;41.16
9822;BME280;4950;46.042;14.472;2023-04-01T12:58:03;96707.56;;;22.01;38.85
9822;BME280;4950;46.042;14.472;2023-04-01T13:00:46;96705.78;;;22.26;38.43
9822;BME280;4950;46.042;14.472;2023-04-01T13:03:32;96701.00;;;22.28;37.25
9822;BME280;4950;46.042;14.472;2023-04-01T13:06:28;96698.50;;;22.07;37.68
9822;BME280;4950;46.042;14.472;2023-04-01T13:09:06;96694.22;;;22.17;38.04
9822;BME280;4950;46.042;14.472;2023-04-01T13:11:51;96692.59;;;22.21;37.02
9822;BME280;4950;46.042;14.472;2023-04-01T13:14:48;96699.44;;;22.22;37.74
9822;BME280;4950;46.042;14.472;2023-04-01T13:17:20;96701.88;;;22.47;37.94
9822;BME280;4950;46.042;14.472;2023-04-01T13:19:53;96695.88;;;22.66;37.64
9822;BME280;4950;46.042;14.472;2023-04-01T13:22:41;96693.59;;;22.78;36.82
9822;BME280;4950;46.042;14.472;2023-04-01T13:25:18;96690.44;;;22.76;36.75
9822;BME280;4950;46.042;14.472;2023-04-01T13:27:56;96696.31;;;22.73;35.89
9822;BME280;4950;46.042;14.472;2023-04-01T13:30:31;96690.56;;;22.66;35.71
9822;BME280;4950;46.042;14.472;2023-04-01T13:33:04;96676.03;;;22.39;34.29
9822;BME280;4950;46.042;14.472;2023-04-01T13:35:41;96679.75;;;21.69;31.79
9822;BME280;4950;46.042;14.472;2023-04-01T13:38:37;96687.06;;;21.38;32.69
9822;BME280;4950;46.042;14.472;2023-04-01T13:41:14;96685.22;;;21.44;34.34
9822;BME280;4950;46.042;14.472;2023-04-01T13:43:49;96675.09;;;21.12;35.15
9822;BME280;4950;46.042;14.472;2023-04-01T13:46:41;96678.69;;;20.66;33.79
9822;BME280;4950;46.042;14.472;2023-04-01T13:55:44;96675.88;;;20.31;36.13
9822;BME280;4950;46.042;14.472;2023-04-01T13:58:42;96688.78;;;20.28;37.17
9822;BME280;4950;46.042;14.472;2023-04-01T14:01:13;96679.81;;;20.19;39.47
9822;BME280;4950;46.042;14.472;2023-04-01T14:03:59;96672.72;;;20.09;39.79
9822;BME280;4950;46.042;14.472;2023-04-01T14:06:38;96681.41;;;20.15;40.07
9822;BME280;4950;46.042;14.472;2023-04-01T14:09:35;96672.97;;;20.12;41.13
9822;BME280;4950;46.042;14.472;2023-04-01T14:12:13;96666.94;;;20.02;41.34
9822;BME280;4950;46.042;14.472;2023-04-01T14:14:54;96672.72;;;19.83;42.16
9822;BME280;4950;46.042;14.472;2023-04-01T14:17:42;96669.84;;;19.75;41.59
9822;BME280;4950;46.042;14.472;2023-04-01T14:20:26;96655.03;;;19.68;40.35
9822;BME280;4950;46.042;14.472;2023-04-01T14:23:09;96668.41;;;19.21;39.24
9822;BME280;4950;46.042;14.472;2023-04-01T14:25:51;96666.38;;;18.70;38.07
9822;BME280;4950;46.042;14.472;2023-04-01T14:28:28;96665.00;;;18.62;39.11
9822;BME280;4950;46.042;14.472;2023-04-01T14:31:18;96667.16;;;18.70;41.26
9822;BME280;4950;46.042;14.472;2023-04-01T14:33:57;96677.16;;;18.73;48.71
9822;BME280;4950;46.042;14.472;2023-04-01T14:36:41;96675.25;;;18.59;49.21
9822;BME280;4950;46.042;14.472;2023-04-01T14:39:46;96671.59;;;18.60;48.50
9822;BME280;4950;46.042;14.472;2023-04-01T14:42:29;96664.72;;;18.59;48.91
9822;BME280;4950;46.042;14.472;2023-04-01T14:45:16;96677.13;;;18.63;47.11
9822;BME280;4950;46.042;14.472;2023-04-01T14:47:48;96680.81;;;18.67;47.67
9822;BME280;4950;46.042;14.472;2023-04-01T14:50:21;96673.72;;;18.68;47.98
9822;BME280;4950;46.042;14.472;2023-04-01T14:52:58;96668.72;;;18.66;47.67
9822;BME280;4950;46.042;14.472;2023-04-01T14:55:30;96667.31;;;18.48;46.15
9822;BME280;4950;46.042;14.472;2023-04-01T14:58:04;96658.59;;;18.43;46.07
9822;BME280;4950;46.042;14.472;2023-04-01T15:00:50;96661.78;;;18.45;45.88